sensor_id;sensor_type;location;lat;lon;timestamp;P1;durP1;ratioP1;P2;durP2;ratioP2
485;SDS011;229;48.734;9.340;2024-03-22T00:01:48;15.07;;;10.35;;
485;SDS011;229;48.734;9.340;2024-03-22T00:04:16;17.50;;;11.30;;
485;SDS011;229;48.734;9.340;2024-03-22T00:06:43;19.08;;;11.30;;
485;SDS011;229;48.734;9.340;2024-03-22T00:09:10;27.60;;;13.05;;
485;SDS011;229;48.734;9.340;2024-03-22T00:11:38;17.63;;;11.93;;
485;SDS011;229;48.734;9.340;2024-03-22T00:14:06;22.17;;;13.13;;
485;SDS011;229;48.734;9.340;2024-03-22T00:16:32;20.67;;;12.75;;
485;SDS011;229;48.734;9.340;2024-03-22T00:18:59;24.48;;;13.48;;
485;SDS011;229;48.734;9.340;2024-03-22T00:21:27;21.67;;;13.15;;
485;SDS011;229;48.734;9.340;2024-03-22T00:23:54;22.58;;;14.48;;
485;SDS011;229;48.734;9.340;2024-03-22T00:26:20;24.73;;;13.45;;
485;SDS011;229;48.734;9.340;2024-03-22T00:28:47;23.98;;;14.55;;
485;SDS011;229;48.734;9.340;2024-03-22T00:31:14;26.80;;;14.45;;
485;SDS011;229;48.734;9.340;2024-03-22T00:33:41;28.77;;;15.75;;
485;SDS011;229;48.734;9.340;2024-03-22T00:36:07;25.23;;;14.45;;
485;SDS011;229;48.734;9.340;2024-03-22T00:38:36;25.50;;;16.23;;
485;SDS011;229;48.734;9.340;2024-03-22T00:41:02;24.60;;;16.77;;
485;SDS011;229;48.734;9.340;2024-03-22T00:43:30;26.95;;;16.70;;
485;SDS011;229;48.734;9.340;2024-03-22T00:45:56;34.17;;;18.95;;
485;SDS011;229;48.734;9.340;2024-03-22T00:48:23;30.63;;;17.80;;
485;SDS011;229;48.734;9.340;2024-03-22T00:50:49;36.88;;;18.40;;
485;SDS011;229;48.734;9.340;2024-03-22T00:53:16;30.25;;;18.75;;
485;SDS011;229;48.734;9.340;2024-03-22T00:55:44;30.13;;;18.25;;
485;SDS011;229;48.734;9.340;2024-03-22T00:58:16;30.60;;;18.95;;
485;SDS011;229;48.734;9.340;2024-03-22T01:00:43;30.98;;;18.27;;
485;SDS011;229;48.734;9.340;2024-03-22T01:03:10;26.80;;;16.55;;
485;SDS011;229;48.734;9.340;2024-03-22T01:05:36;31.60;;;17.80;;
485;SDS011;229;48.734;9.340;2024-03-22T01:08:05;28.63;;;18.30;;
485;SDS011;229;48.734;9.340;2024-03-22T01:10:32;31.10;;;18.80;;
485;SDS011;229;48.734;9.340;2024-03-22T01:13:01;38.30;;;21.30;;
485;SDS011;229;48.734;9.340;2024-03-22T01:15:27;33.42;;;19.85;;
485;SDS011;229;48.734;9.340;2024-03-22T01:17:55;31.20;;;20.58;;
485;SDS011;229;48.734;9.340;2024-03-22T01:20:21;33.58;;;20.48;;
485;SDS011;229;48.734;9.340;2024-03-22T01:22:48;32.05;;;20.42;;
485;SDS011;229;48.734;9.340;2024-03-22T01:25:14;33.65;;;21.38;;
485;SDS011;229;48.734;9.340;2024-03-22T01:27:41;33.78;;;20.70;;
485;SDS011;229;48.734;9.340;2024-03-22T01:30:09;34.45;;;20.80;;
485;SDS011;229;48.734;9.340;2024-03-22T01:32:37;37.38;;;20.30;;
485;SDS011;229;48.734;9.340;2024-03-22T01:35:03;38.70;;;21.98;;
485;SDS011;229;48.734;9.340;2024-03-22T01:37:30;35.00;;;21.38;;
485;SDS011;229;48.734;9.340;2024-03-22T01:39:57;39.78;;;22.27;;
485;SDS011;229;48.734;9.340;2024-03-22T01:42:24;37.17;;;22.50;;
485;SDS011;229;48.734;9.340;2024-03-22T01:44:50;29.02;;;19.15;;
485;SDS011;229;48.734;9.340;2024-03-22T01:47:19;32.42;;;21.02;;
485;SDS011;229;48.734;9.340;2024-03-22T01:49:45;30.00;;;19.67;;
485;SDS011;229;48.734;9.340;2024-03-22T01:52:12;36.83;;;21.42;;
485;SDS011;229;48.734;9.340;2024-03-22T01:54:39;36.55;;;21.80;;
485;SDS011;229;48.734;9.340;2024-03-22T01:57:06;35.97;;;22.15;;
485;SDS011;229;48.734;9.340;2024-03-22T01:59:32;37.10;;;22.63;;
485;SDS011;229;48.734;9.340;2024-03-22T02:02:00;36.15;;;21.77;;
485;SDS011;229;48.734;9.340;2024-03-22T02:04:29;31.85;;;20.40;;
485;SDS011;229;48.734;9.340;2024-03-22T02:06:56;40.05;;;23.30;;
485;SDS011;229;48.734;9.340;2024-03-22T02:09:22;35.25;;;21.05;;
485;SDS011;229;48.734;9.340;2024-03-22T02:11:49;38.38;;;21.70;;
485;SDS011;229;48.734;9.340;2024-03-22T02:14:15;38.97;;;24.73;;
485;SDS011;229;48.734;9.340;2024-03-22T02:16:43;35.33;;;21.83;;
485;SDS011;229;48.734;9.340;2024-03-22T02:19:10;33.10;;;20.88;;
485;SDS011;229;48.734;9.340;2024-03-22T02:21:39;36.17;;;20.25;;
485;SDS011;229;48.734;9.340;2024-03-22T02:24:07;39.47;;;20.88;;
485;SDS011;229;48.734;9.340;2024-03-22T02:26:34;36.80;;;21.80;;
485;SDS011;229;48.734;9.340;2024-03-22T02:29:00;35.75;;;20.25;;
485;SDS011;229;48.734;9.340;2024-03-22T02:31:27;31.27;;;19.10;;
485;SDS011;229;48.734;9.340;2024-03-22T02:33:53;35.30;;;19.50;;
485;SDS011;229;48.734;9.340;2024-03-22T02:36:20;38.97;;;21.17;;
485;SDS011;229;48.734;9.340;2024-03-22T02:38:47;31.45;;;18.83;;
485;SDS011;229;48.734;9.340;2024-03-22T02:41:15;34.10;;;20.38;;
485;SDS011;229;48.734;9.340;2024-03-22T02:43:41;34.08;;;18.02;;
485;SDS011;229;48.734;9.340;2024-03-22T02:46:08;28.33;;;19.50;;
485;SDS011;229;48.734;9.340;2024-03-22T02:48:35;29.38;;;19.02;;
485;SDS011;229;48.734;9.340;2024-03-22T02:51:02;27.63;;;18.77;;
485;SDS011;229;48.734;9.340;2024-03-22T02:53:28;29.98;;;19.33;;
485;SDS011;229;48.734;9.340;2024-03-22T02:55:55;28.40;;;18.00;;
485;SDS011;229;48.734;9.340;2024-03-22T02:58:23;31.17;;;17.60;;
485;SDS011;229;48.734;9.340;2024-03-22T03:00:50;25.20;;;16.65;;
485;SDS011;229;48.734;9.340;2024-03-22T03:03:16;27.88;;;17.35;;
485;SDS011;229;48.734;9.340;2024-03-22T03:05:43;34.40;;;18.95;;
485;SDS011;229;48.734;9.340;2024-03-22T03:08:09;31.75;;;18.40;;
485;SDS011;229;48.734;9.340;2024-03-22T03:10:37;28.27;;;17.55;;
485;SDS011;229;48.734;9.340;2024-03-22T03:13:03;28.52;;;17.73;;
485;SDS011;229;48.734;9.340;2024-03-22T03:15:31;31.20;;;17.20;;
485;SDS011;229;48.734;9.340;2024-03-22T03:17:58;26.48;;;17.25;;
485;SDS011;229;48.734;9.340;2024-03-22T03:20:25;29.42;;;16.88;;
485;SDS011;229;48.734;9.340;2024-03-22T03:22:51;26.48;;;16.95;;
485;SDS011;229;48.734;9.340;2024-03-22T03:25:19;25.75;;;17.35;;
485;SDS011;229;48.734;9.340;2024-03-22T03:27:45;26.88;;;17.60;;
485;SDS011;229;48.734;9.340;2024-03-22T03:30:12;26.35;;;18.45;;
485;SDS011;229;48.734;9.340;2024-03-22T03:32:39;29.90;;;17.88;;
485;SDS011;229;48.734;9.340;2024-03-22T03:35:07;31.77;;;18.20;;
485;SDS011;229;48.734;9.340;2024-03-22T03:37:33;25.50;;;17.70;;
485;SDS011;229;48.734;9.340;2024-03-22T03:40:00;28.95;;;17.92;;
485;SDS011;229;48.734;9.340;2024-03-22T03:42:26;27.55;;;17.98;;
485;SDS011;229;48.734;9.340;2024-03-22T03:44:53;32.55;;;18.60;;
485;SDS011;229;48.734;9.340;2024-03-22T03:47:20;27.33;;;17.35;;
485;SDS011;229;48.734;9.340;2024-03-22T03:49:48;23.20;;;17.55;;
485;SDS011;229;48.734;9.340;2024-03-22T03:52:14;32.05;;;18.23;;
485;SDS011;229;48.734;9.340;2024-03-22T03:54:42;28.48;;;18.73;;
485;SDS011;229;48.734;9.340;2024-03-22T03:57:08;33.22;;;20.00;;
485;SDS011;229;48.734;9.340;2024-03-22T03:59:35;27.02;;;17.95;;
485;SDS011;229;48.734;9.340;2024-03-22T04:02:01;29.05;;;18.35;;
485;SDS011;229;48.734;9.340;2024-03-22T04:04:28;30.15;;;19.23;;
485;SDS011;229;48.734;9.340;2024-03-22T04:06:56;31.85;;;17.85;;
485;SDS011;229;48.734;9.340;2024-03-22T04:09:23;25.65;;;18.05;;
485;SDS011;229;48.734;9.340;2024-03-22T04:11:49;27.77;;;17.30;;
485;SDS011;229;48.734;9.340;2024-03-22T04:14:16;29.58;;;17.92;;
485;SDS011;229;48.734;9.340;2024-03-22T04:16:42;23.05;;;16.10;;
485;SDS011;229;48.734;9.340;2024-03-22T04:19:10;33.80;;;19.20;;
485;SDS011;229;48.734;9.340;2024-03-22T04:21:36;29.08;;;18.85;;
485;SDS011;229;48.734;9.340;2024-03-22T04:24:04;26.98;;;17.45;;
485;SDS011;229;48.734;9.340;2024-03-22T04:26:31;29.17;;;17.23;;
485;SDS011;229;48.734;9.340;2024-03-22T04:28:58;29.10;;;17.88;;
485;SDS011;229;48.734;9.340;2024-03-22T04:31:24;26.83;;;16.77;;
485;SDS011;229;48.734;9.340;2024-03-22T04:33:51;31.10;;;16.95;;
485;SDS011;229;48.734;9.340;2024-03-22T04:36:17;27.23;;;17.38;;
485;SDS011;229;48.734;9.340;2024-03-22T04:38:45;26.17;;;17.60;;
485;SDS011;229;48.734;9.340;2024-03-22T04:41:13;29.23;;;18.13;;
485;SDS011;229;48.734;9.340;2024-03-22T04:43:40;25.08;;;17.70;;
485;SDS011;229;48.734;9.340;2024-03-22T04:46:06;30.35;;;18.08;;
485;SDS011;229;48.734;9.340;2024-03-22T04:48:34;31.40;;;18.80;;
485;SDS011;229;48.734;9.340;2024-03-22T04:51:00;31.45;;;19.33;;
485;SDS011;229;48.734;9.340;2024-03-22T04:53:27;31.90;;;20.73;;
485;SDS011;229;48.734;9.340;2024-03-22T04:55:53;32.63;;;20.67;;
485;SDS011;229;48.734;9.340;2024-03-22T04:58:22;33.35;;;19.55;;
485;SDS011;229;48.734;9.340;2024-03-22T05:00:49;30.35;;;19.67;;
485;SDS011;229;48.734;9.340;2024-03-22T05:03:17;32.45;;;19.73;;
485;SDS011;229;48.734;9.340;2024-03-22T05:05:43;28.70;;;19.15;;
485;SDS011;229;48.734;9.340;2024-03-22T05:08:11;27.05;;;19.65;;
485;SDS011;229;48.734;9.340;2024-03-22T05:10:37;34.05;;;19.00;;
485;SDS011;229;48.734;9.340;2024-03-22T05:13:04;29.17;;;18.40;;
485;SDS011;229;48.734;9.340;2024-03-22T05:15:31;40.50;;;21.17;;
485;SDS011;229;48.734;9.340;2024-03-22T05:17:59;33.20;;;18.17;;
485;SDS011;229;48.734;9.340;2024-03-22T05:20:25;27.75;;;17.35;;
485;SDS011;229;48.734;9.340;2024-03-22T05:22:52;31.88;;;19.75;;
485;SDS011;229;48.734;9.340;2024-03-22T05:25:18;29.75;;;18.65;;
485;SDS011;229;48.734;9.340;2024-03-22T05:27:45;34.78;;;18.85;;
485;SDS011;229;48.734;9.340;2024-03-22T05:30:12;33.40;;;19.60;;
485;SDS011;229;48.734;9.340;2024-03-22T05:32:41;33.30;;;20.40;;
485;SDS011;229;48.734;9.340;2024-03-22T05:35:08;34.95;;;20.55;;
485;SDS011;229;48.734;9.340;2024-03-22T05:37:35;32.63;;;21.38;;
485;SDS011;229;48.734;9.340;2024-03-22T05:40:02;37.80;;;20.35;;
485;SDS011;229;48.734;9.340;2024-03-22T05:42:29;33.70;;;19.23;;
485;SDS011;229;48.734;9.340;2024-03-22T05:44:57;27.38;;;17.70;;
485;SDS011;229;48.734;9.340;2024-03-22T05:47:23;28.65;;;18.30;;
485;SDS011;229;48.734;9.340;2024-03-22T05:49:52;29.48;;;17.80;;
485;SDS011;229;48.734;9.340;2024-03-22T05:52:18;33.15;;;19.67;;
485;SDS011;229;48.734;9.340;2024-03-22T05:54:45;33.78;;;19.80;;
485;SDS011;229;48.734;9.340;2024-03-22T05:57:12;34.25;;;20.60;;
485;SDS011;229;48.734;9.340;2024-03-22T05:59:39;32.65;;;19.92;;
485;SDS011;229;48.734;9.340;2024-03-22T06:02:05;30.48;;;19.88;;
485;SDS011;229;48.734;9.340;2024-03-22T06:04:33;36.40;;;21.20;;
485;SDS011;229;48.734;9.340;2024-03-22T06:07:00;33.45;;;20.75;;
485;SDS011;229;48.734;9.340;2024-03-22T06:09:29;35.10;;;20.75;;
485;SDS011;229;48.734;9.340;2024-03-22T06:12:02;33.30;;;20.35;;
485;SDS011;229;48.734;9.340;2024-03-22T06:14:29;35.60;;;21.15;;
485;SDS011;229;48.734;9.340;2024-03-22T06:16:55;37.25;;;21.60;;
485;SDS011;229;48.734;9.340;2024-03-22T06:19:22;32.08;;;20.55;;
485;SDS011;229;48.734;9.340;2024-03-22T06:21:49;42.78;;;20.92;;
485;SDS011;229;48.734;9.340;2024-03-22T06:24:17;31.92;;;20.50;;
485;SDS011;229;48.734;9.340;2024-03-22T06:26:43;35.50;;;21.10;;
485;SDS011;229;48.734;9.340;2024-03-22T06:29:11;35.65;;;21.05;;
485;SDS011;229;48.734;9.340;2024-03-22T06:31:37;33.83;;;19.52;;
485;SDS011;229;48.734;9.340;2024-03-22T06:34:04;35.95;;;21.45;;
485;SDS011;229;48.734;9.340;2024-03-22T06:36:31;37.53;;;21.50;;
485;SDS011;229;48.734;9.340;2024-03-22T06:38:58;36.88;;;20.77;;
485;SDS011;229;48.734;9.340;2024-03-22T06:41:26;34.13;;;20.20;;
485;SDS011;229;48.734;9.340;2024-03-22T06:43:53;35.05;;;19.33;;
485;SDS011;229;48.734;9.340;2024-03-22T06:46:19;30.52;;;18.85;;
485;SDS011;229;48.734;9.340;2024-03-22T06:48:46;34.63;;;20.23;;
485;SDS011;229;48.734;9.340;2024-03-22T06:51:12;29.02;;;18.27;;
485;SDS011;229;48.734;9.340;2024-03-22T06:53:40;31.70;;;18.27;;
485;SDS011;229;48.734;9.340;2024-03-22T06:56:06;32.13;;;18.13;;
485;SDS011;229;48.734;9.340;2024-03-22T06:58:38;34.13;;;19.08;;
485;SDS011;229;48.734;9.340;2024-03-22T07:01:04;32.35;;;17.30;;
485;SDS011;229;48.734;9.340;2024-03-22T07:03:31;34.25;;;19.38;;
485;SDS011;229;48.734;9.340;2024-03-22T07:05:58;37.13;;;18.50;;
485;SDS011;229;48.734;9.340;2024-03-22T07:08:25;29.92;;;16.58;;
485;SDS011;229;48.734;9.340;2024-03-22T07:10:52;26.98;;;16.55;;
485;SDS011;229;48.734;9.340;2024-03-22T07:13:19;30.10;;;16.38;;
485;SDS011;229;48.734;9.340;2024-03-22T07:15:48;26.20;;;15.95;;
485;SDS011;229;48.734;9.340;2024-03-22T07:18:14;21.05;;;13.65;;
485;SDS011;229;48.734;9.340;2024-03-22T07:20:41;44.75;;;11.98;;
485;SDS011;229;48.734;9.340;2024-03-22T07:23:08;27.73;;;13.20;;
485;SDS011;229;48.734;9.340;2024-03-22T07:25:35;18.30;;;10.32;;
485;SDS011;229;48.734;9.340;2024-03-22T07:28:01;17.02;;;11.43;;
485;SDS011;229;48.734;9.340;2024-03-22T07:30:28;17.27;;;9.75;;
485;SDS011;229;48.734;9.340;2024-03-22T07:32:56;16.05;;;9.13;;
485;SDS011;229;48.734;9.340;2024-03-22T07:35:23;21.77;;;10.52;;
485;SDS011;229;48.734;9.340;2024-03-22T07:37:50;22.35;;;9.75;;
485;SDS011;229;48.734;9.340;2024-03-22T07:40:17;21.23;;;9.98;;
485;SDS011;229;48.734;9.340;2024-03-22T07:42:45;17.15;;;9.35;;
485;SDS011;229;48.734;9.340;2024-03-22T07:45:12;15.60;;;10.43;;
485;SDS011;229;48.734;9.340;2024-03-22T07:47:38;22.90;;;9.70;;
485;SDS011;229;48.734;9.340;2024-03-22T07:50:09;22.23;;;10.38;;
485;SDS011;229;48.734;9.340;2024-03-22T07:52:35;15.20;;;9.93;;
485;SDS011;229;48.734;9.340;2024-03-22T07:55:02;16.52;;;9.55;;
485;SDS011;229;48.734;9.340;2024-03-22T07:57:28;20.73;;;10.80;;
485;SDS011;229;48.734;9.340;2024-03-22T07:59:57;17.77;;;10.10;;
485;SDS011;229;48.734;9.340;2024-03-22T08:02:24;18.02;;;9.80;;
485;SDS011;229;48.734;9.340;2024-03-22T08:04:51;18.55;;;10.88;;
485;SDS011;229;48.734;9.340;2024-03-22T08:07:19;19.95;;;10.70;;
485;SDS011;229;48.734;9.340;2024-03-22T08:09:46;15.40;;;9.32;;
485;SDS011;229;48.734;9.340;2024-03-22T08:12:12;18.75;;;10.25;;
485;SDS011;229;48.734;9.340;2024-03-22T08:14:39;12.85;;;8.70;;
485;SDS011;229;48.734;9.340;2024-03-22T08:17:06;14.68;;;9.82;;
485;SDS011;229;48.734;9.340;2024-03-22T08:19:36;16.77;;;9.65;;
485;SDS011;229;48.734;9.340;2024-03-22T08:22:03;17.17;;;9.00;;
485;SDS011;229;48.734;9.340;2024-03-22T08:24:31;15.18;;;8.95;;
485;SDS011;229;48.734;9.340;2024-03-22T08:26:58;15.90;;;9.90;;
485;SDS011;229;48.734;9.340;2024-03-22T08:29:26;17.25;;;10.05;;
485;SDS011;229;48.734;9.340;2024-03-22T08:31:52;19.52;;;11.02;;
485;SDS011;229;48.734;9.340;2024-03-22T08:34:19;15.90;;;9.63;;
485;SDS011;229;48.734;9.340;2024-03-22T08:36:45;17.27;;;10.00;;
485;SDS011;229;48.734;9.340;2024-03-22T08:39:12;16.13;;;9.50;;
485;SDS011;229;48.734;9.340;2024-03-22T08:41:41;20.52;;;9.13;;
485;SDS011;229;48.734;9.340;2024-03-22T08:44:09;16.40;;;9.48;;
485;SDS011;229;48.734;9.340;2024-03-22T08:46:36;16.15;;;9.30;;
485;SDS011;229;48.734;9.340;2024-03-22T08:49:03;15.13;;;9.77;;
485;SDS011;229;48.734;9.340;2024-03-22T08:51:30;20.20;;;8.70;;
485;SDS011;229;48.734;9.340;2024-03-22T08:53:57;13.85;;;9.45;;
485;SDS011;229;48.734;9.340;2024-03-22T08:56:23;18.05;;;8.95;;
485;SDS011;229;48.734;9.340;2024-03-22T08:58:52;15.67;;;9.97;;
485;SDS011;229;48.734;9.340;2024-03-22T09:01:18;13.13;;;8.20;;
485;SDS011;229;48.734;9.340;2024-03-22T09:03:45;12.73;;;9.20;;
485;SDS011;229;48.734;9.340;2024-03-22T09:06:11;16.13;;;8.02;;
485;SDS011;229;48.734;9.340;2024-03-22T09:08:38;18.80;;;8.93;;
485;SDS011;229;48.734;9.340;2024-03-22T09:11:05;14.37;;;8.93;;
485;SDS011;229;48.734;9.340;2024-03-22T09:13:32;12.03;;;8.20;;
485;SDS011;229;48.734;9.340;2024-03-22T09:16:01;15.03;;;8.63;;
485;SDS011;229;48.734;9.340;2024-03-22T09:18:28;14.43;;;8.13;;
485;SDS011;229;48.734;9.340;2024-03-22T09:20:55;12.57;;;8.57;;
485;SDS011;229;48.734;9.340;2024-03-22T09:23:22;12.40;;;8.17;;
485;SDS011;229;48.734;9.340;2024-03-22T09:25:49;22.03;;;9.27;;
485;SDS011;229;48.734;9.340;2024-03-22T09:28:16;15.27;;;9.27;;
485;SDS011;229;48.734;9.340;2024-03-22T09:30:42;13.93;;;8.50;;
485;SDS011;229;48.734;9.340;2024-03-22T09:33:11;19.60;;;9.00;;
485;SDS011;229;48.734;9.340;2024-03-22T09:35:37;12.10;;;8.23;;
485;SDS011;229;48.734;9.340;2024-03-22T09:38:04;19.53;;;8.07;;
485;SDS011;229;48.734;9.340;2024-03-22T09:40:31;19.17;;;8.10;;
485;SDS011;229;48.734;9.340;2024-03-22T09:43:01;12.87;;;8.93;;
485;SDS011;229;48.734;9.340;2024-03-22T09:45:28;16.93;;;9.30;;
485;SDS011;229;48.734;9.340;2024-03-22T09:47:55;13.93;;;8.83;;
485;SDS011;229;48.734;9.340;2024-03-22T09:50:23;12.57;;;8.43;;
485;SDS011;229;48.734;9.340;2024-03-22T09:52:51;12.97;;;7.60;;
485;SDS011;229;48.734;9.340;2024-03-22T09:55:18;15.00;;;7.00;;
485;SDS011;229;48.734;9.340;2024-03-22T09:57:47;9.57;;;6.20;;
485;SDS011;229;48.734;9.340;2024-03-22T10:00:15;13.73;;;8.13;;
485;SDS011;229;48.734;9.340;2024-03-22T10:02:43;12.87;;;7.13;;
485;SDS011;229;48.734;9.340;2024-03-22T10:05:10;9.80;;;6.07;;
485;SDS011;229;48.734;9.340;2024-03-22T10:07:39;9.17;;;6.10;;
485;SDS011;229;48.734;9.340;2024-03-22T10:10:05;10.80;;;6.73;;
485;SDS011;229;48.734;9.340;2024-03-22T10:12:32;10.13;;;6.20;;
485;SDS011;229;48.734;9.340;2024-03-22T10:14:58;9.70;;;6.20;;
485;SDS011;229;48.734;9.340;2024-03-22T10:17:26;11.10;;;5.70;;
485;SDS011;229;48.734;9.340;2024-03-22T10:19:52;11.03;;;5.70;;
485;SDS011;229;48.734;9.340;2024-03-22T10:22:19;9.10;;;6.03;;
485;SDS011;229;48.734;9.340;2024-03-22T10:24:47;12.30;;;6.63;;
485;SDS011;229;48.734;9.340;2024-03-22T10:27:14;10.50;;;6.83;;
485;SDS011;229;48.734;9.340;2024-03-22T10:29:40;10.77;;;6.00;;
485;SDS011;229;48.734;9.340;2024-03-22T10:32:07;10.97;;;6.67;;
485;SDS011;229;48.734;9.340;2024-03-22T10:34:34;9.63;;;6.33;;
485;SDS011;229;48.734;9.340;2024-03-22T10:37:01;8.67;;;5.90;;
485;SDS011;229;48.734;9.340;2024-03-22T10:39:28;9.13;;;6.20;;
485;SDS011;229;48.734;9.340;2024-03-22T10:41:56;9.60;;;6.20;;
485;SDS011;229;48.734;9.340;2024-03-22T10:44:23;12.00;;;6.23;;
485;SDS011;229;48.734;9.340;2024-03-22T10:46:50;16.23;;;7.20;;
485;SDS011;229;48.734;9.340;2024-03-22T10:49:20;16.00;;;6.53;;
485;SDS011;229;48.734;9.340;2024-03-22T10:51:48;8.93;;;5.90;;
485;SDS011;229;48.734;9.340;2024-03-22T10:54:16;15.53;;;6.30;;
485;SDS011;229;48.734;9.340;2024-03-22T10:56:45;11.00;;;6.13;;
485;SDS011;229;48.734;9.340;2024-03-22T10:59:14;11.50;;;5.70;;
485;SDS011;229;48.734;9.340;2024-03-22T11:01:44;11.43;;;5.97;;
485;SDS011;229;48.734;9.340;2024-03-22T11:04:11;8.70;;;6.60;;
485;SDS011;229;48.734;9.340;2024-03-22T11:06:38;11.07;;;6.53;;
485;SDS011;229;48.734;9.340;2024-03-22T11:09:05;8.47;;;6.23;;
485;SDS011;229;48.734;9.340;2024-03-22T11:11:34;7.47;;;6.00;;
485;SDS011;229;48.734;9.340;2024-03-22T11:14:02;12.27;;;5.50;;
485;SDS011;229;48.734;9.340;2024-03-22T11:16:31;7.80;;;5.07;;
485;SDS011;229;48.734;9.340;2024-03-22T11:18:57;11.13;;;5.13;;
485;SDS011;229;48.734;9.340;2024-03-22T11:21:24;9.83;;;5.40;;
485;SDS011;229;48.734;9.340;2024-03-22T11:23:50;9.87;;;5.13;;
485;SDS011;229;48.734;9.340;2024-03-22T11:26:17;6.47;;;4.07;;
485;SDS011;229;48.734;9.340;2024-03-22T11:28:43;8.37;;;5.03;;
485;SDS011;229;48.734;9.340;2024-03-22T11:31:10;7.03;;;4.07;;
485;SDS011;229;48.734;9.340;2024-03-22T11:33:39;6.73;;;4.40;;
485;SDS011;229;48.734;9.340;2024-03-22T11:36:06;12.47;;;4.80;;
485;SDS011;229;48.734;9.340;2024-03-22T11:38:33;8.40;;;5.37;;
485;SDS011;229;48.734;9.340;2024-03-22T11:41:00;9.90;;;4.53;;
485;SDS011;229;48.734;9.340;2024-03-22T11:43:27;9.50;;;4.33;;
485;SDS011;229;48.734;9.340;2024-03-22T11:45:55;8.27;;;4.67;;
485;SDS011;229;48.734;9.340;2024-03-22T11:48:21;8.70;;;4.10;;
485;SDS011;229;48.734;9.340;2024-03-22T11:50:50;6.20;;;4.10;;
485;SDS011;229;48.734;9.340;2024-03-22T11:53:17;6.17;;;4.27;;
485;SDS011;229;48.734;9.340;2024-03-22T11:55:44;8.03;;;4.00;;
485;SDS011;229;48.734;9.340;2024-03-22T11:58:10;11.93;;;4.10;;
485;SDS011;229;48.734;9.340;2024-03-22T12:00:37;5.90;;;4.00;;
485;SDS011;229;48.734;9.340;2024-03-22T12:03:04;7.80;;;3.97;;
485;SDS011;229;48.734;9.340;2024-03-22T12:05:32;8.10;;;3.93;;
485;SDS011;229;48.734;9.340;2024-03-22T12:07:59;6.37;;;4.60;;
485;SDS011;229;48.734;9.340;2024-03-22T12:10:27;8.23;;;4.07;;
485;SDS011;229;48.734;9.340;2024-03-22T12:12:53;6.10;;;3.57;;
485;SDS011;229;48.734;9.340;2024-03-22T12:15:21;5.43;;;4.00;;
485;SDS011;229;48.734;9.340;2024-03-22T12:17:47;9.53;;;4.53;;
485;SDS011;229;48.734;9.340;2024-03-22T12:20:14;11.83;;;4.07;;
485;SDS011;229;48.734;9.340;2024-03-22T12:22:41;6.87;;;4.00;;
485;SDS011;229;48.734;9.340;2024-03-22T12:25:09;7.57;;;3.93;;
485;SDS011;229;48.734;9.340;2024-03-22T12:27:36;7.43;;;4.50;;
485;SDS011;229;48.734;9.340;2024-03-22T12:30:04;10.60;;;3.60;;
485;SDS011;229;48.734;9.340;2024-03-22T12:32:31;4.80;;;3.90;;
485;SDS011;229;48.734;9.340;2024-03-22T12:34:58;8.23;;;4.20;;
485;SDS011;229;48.734;9.340;2024-03-22T12:37:24;5.83;;;3.77;;
485;SDS011;229;48.734;9.340;2024-03-22T12:39:51;5.90;;;3.47;;
485;SDS011;229;48.734;9.340;2024-03-22T12:42:19;4.93;;;3.70;;
485;SDS011;229;48.734;9.340;2024-03-22T12:44:46;8.30;;;3.90;;
485;SDS011;229;48.734;9.340;2024-03-22T12:47:12;6.67;;;3.80;;
485;SDS011;229;48.734;9.340;2024-03-22T12:49:39;7.10;;;3.70;;
485;SDS011;229;48.734;9.340;2024-03-22T12:52:06;5.57;;;3.33;;
485;SDS011;229;48.734;9.340;2024-03-22T12:54:33;5.23;;;3.80;;
485;SDS011;229;48.734;9.340;2024-03-22T12:56:59;9.97;;;4.40;;
485;SDS011;229;48.734;9.340;2024-03-22T12:59:28;4.70;;;3.80;;
485;SDS011;229;48.734;9.340;2024-03-22T13:01:54;7.67;;;3.90;;
485;SDS011;229;48.734;9.340;2024-03-22T13:04:22;7.30;;;4.60;;
485;SDS011;229;48.734;9.340;2024-03-22T13:06:48;6.97;;;3.90;;
485;SDS011;229;48.734;9.340;2024-03-22T13:09:15;6.43;;;3.83;;
485;SDS011;229;48.734;9.340;2024-03-22T13:11:45;6.20;;;4.37;;
485;SDS011;229;48.734;9.340;2024-03-22T13:14:12;9.23;;;4.17;;
485;SDS011;229;48.734;9.340;2024-03-22T13:16:40;7.70;;;4.00;;
485;SDS011;229;48.734;9.340;2024-03-22T13:19:07;5.90;;;3.50;;
485;SDS011;229;48.734;9.340;2024-03-22T13:21:37;7.10;;;3.10;;
485;SDS011;229;48.734;9.340;2024-03-22T13:24:04;5.57;;;3.63;;
485;SDS011;229;48.734;9.340;2024-03-22T13:26:30;6.50;;;3.90;;
485;SDS011;229;48.734;9.340;2024-03-22T13:28:58;6.37;;;4.30;;
485;SDS011;229;48.734;9.340;2024-03-22T13:31:24;5.97;;;3.70;;
485;SDS011;229;48.734;9.340;2024-03-22T13:33:52;8.30;;;3.30;;
485;SDS011;229;48.734;9.340;2024-03-22T13:36:18;7.43;;;4.47;;
485;SDS011;229;48.734;9.340;2024-03-22T13:38:45;6.90;;;3.37;;
485;SDS011;229;48.734;9.340;2024-03-22T13:41:12;5.27;;;3.00;;
485;SDS011;229;48.734;9.340;2024-03-22T13:43:39;4.70;;;3.63;;
485;SDS011;229;48.734;9.340;2024-03-22T13:46:06;8.10;;;3.60;;
485;SDS011;229;48.734;9.340;2024-03-22T13:48:33;6.87;;;3.93;;
485;SDS011;229;48.734;9.340;2024-03-22T13:51:00;6.03;;;3.30;;
485;SDS011;229;48.734;9.340;2024-03-22T13:53:28;9.63;;;3.30;;
485;SDS011;229;48.734;9.340;2024-03-22T13:55:54;11.17;;;3.40;;
485;SDS011;229;48.734;9.340;2024-03-22T13:58:21;7.47;;;3.10;;
485;SDS011;229;48.734;9.340;2024-03-22T14:00:48;9.67;;;4.00;;
485;SDS011;229;48.734;9.340;2024-03-22T14:03:15;7.00;;;3.40;;
485;SDS011;229;48.734;9.340;2024-03-22T14:05:41;7.57;;;3.60;;
485;SDS011;229;48.734;9.340;2024-03-22T14:08:09;6.57;;;3.20;;
485;SDS011;229;48.734;9.340;2024-03-22T14:10:36;8.43;;;3.37;;
485;SDS011;229;48.734;9.340;2024-03-22T14:13:04;4.90;;;3.17;;
485;SDS011;229;48.734;9.340;2024-03-22T14:15:33;6.27;;;3.23;;
485;SDS011;229;48.734;9.340;2024-03-22T14:18:01;4.93;;;3.70;;
485;SDS011;229;48.734;9.340;2024-03-22T14:20:28;5.23;;;3.20;;
485;SDS011;229;48.734;9.340;2024-03-22T14:22:56;4.60;;;3.10;;
485;SDS011;229;48.734;9.340;2024-03-22T14:25:23;6.73;;;3.20;;
485;SDS011;229;48.734;9.340;2024-03-22T14:27:52;4.10;;;3.00;;
485;SDS011;229;48.734;9.340;2024-03-22T14:30:18;11.90;;;4.10;;
485;SDS011;229;48.734;9.340;2024-03-22T14:32:46;5.03;;;3.20;;
485;SDS011;229;48.734;9.340;2024-03-22T14:35:12;6.67;;;3.40;;
485;SDS011;229;48.734;9.340;2024-03-22T14:37:39;4.43;;;2.90;;
485;SDS011;229;48.734;9.340;2024-03-22T14:40:06;3.80;;;3.20;;
485;SDS011;229;48.734;9.340;2024-03-22T14:42:36;6.53;;;4.10;;
485;SDS011;229;48.734;9.340;2024-03-22T14:45:03;4.70;;;2.80;;
485;SDS011;229;48.734;9.340;2024-03-22T14:47:31;5.67;;;3.37;;
485;SDS011;229;48.734;9.340;2024-03-22T14:49:57;4.40;;;2.93;;
485;SDS011;229;48.734;9.340;2024-03-22T14:52:24;7.70;;;4.93;;
485;SDS011;229;48.734;9.340;2024-03-22T14:54:51;14.03;;;4.30;;
485;SDS011;229;48.734;9.340;2024-03-22T14:57:18;7.33;;;4.30;;
485;SDS011;229;48.734;9.340;2024-03-22T14:59:46;7.80;;;3.50;;
485;SDS011;229;48.734;9.340;2024-03-22T15:02:17;6.77;;;3.73;;
485;SDS011;229;48.734;9.340;2024-03-22T15:04:43;7.20;;;4.30;;
485;SDS011;229;48.734;9.340;2024-03-22T15:07:10;8.50;;;4.67;;
485;SDS011;229;48.734;9.340;2024-03-22T15:09:37;6.67;;;4.63;;
485;SDS011;229;48.734;9.340;2024-03-22T15:12:05;8.47;;;4.60;;
485;SDS011;229;48.734;9.340;2024-03-22T15:14:33;9.33;;;4.30;;
485;SDS011;229;48.734;9.340;2024-03-22T15:17:02;12.23;;;5.10;;
485;SDS011;229;48.734;9.340;2024-03-22T15:19:28;11.43;;;4.80;;
485;SDS011;229;48.734;9.340;2024-03-22T15:21:56;7.10;;;4.10;;
485;SDS011;229;48.734;9.340;2024-03-22T15:24:22;7.17;;;4.00;;
485;SDS011;229;48.734;9.340;2024-03-22T15:26:49;7.60;;;3.90;;